Time;durP1;ratioP1;P1;durP2;ratioP2;P2;SDS_P1;SDS_P2;PMS_P1;PMS_P2;Temp;Humidity;BMP_temperature;BMP_pressure;BME280_temperature;BME280_humidity;BME280_pressure;Samples;Min_cycle;Max_cycle;Signal;HPM_P1;HPM_P2
2022/11/28 00:00:56;;;;;;;6.95;6.20;;;;;;;8.46;100.00;100879.19;5236564;28;20052;-70
2022/11/28 00:03:27;;;;;;;7.85;6.07;;;;;;;8.51;100.00;100887.50;5238661;28;20041;-70
2022/11/28 00:06:04;;;;;;;8.02;5.65;;;;;;;8.59;100.00;100879.91;5237602;28;20383;-70
2022/11/28 00:08:35;;;;;;;10.00;6.40;;;;;;;8.55;100.00;100880.28;5237879;28;20439;-70
2022/11/28 00:11:10;;;;;;;6.53;5.13;;;;;;;8.62;100.00;100879.69;5237587;28;20078;-70
2022/11/28 00:13:43;;;;;;;8.52;5.15;;;;;;;8.59;100.00;100873.88;5237898;28;20041;-70
2022/11/28 00:16:16;;;;;;;6.78;4.88;;;;;;;8.66;100.00;100875.06;5237805;28;20421;-70
2022/11/28 00:18:49;;;;;;;5.60;5.10;;;;;;;8.65;100.00;100876.84;5237594;28;20030;-70
2022/11/28 00:21:22;;;;;;;7.72;5.10;;;;;;;8.67;100.00;100869.72;5236926;28;20502;-70
2022/11/28 00:23:53;;;;;;;7.75;5.40;;;;;;;8.70;100.00;100861.66;5236417;28;20032;-70
2022/11/28 00:26:27;;;;;;;6.70;5.25;;;;;;;8.67;100.00;100877.56;5237605;28;20021;-69
2022/11/28 00:28:59;;;;;;;9.43;4.90;;;;;;;8.70;100.00;100871.28;5237644;28;20079;-70
2022/11/28 00:31:34;;;;;;;6.07;4.45;;;;;;;8.73;100.00;100864.03;5236994;28;20041;-68
2022/11/28 00:34:05;;;;;;;5.15;4.30;;;;;;;8.78;100.00;100867.13;5235183;28;20030;-70
2022/11/28 00:36:36;;;;;;;4.70;4.05;;;;;;;8.82;100.00;100851.22;5237375;28;20029;-70
2022/11/28 00:39:08;;;;;;;5.60;4.20;;;;;;;8.83;100.00;100855.50;5237660;28;20082;-70
2022/11/28 00:41:40;;;;;;;5.07;3.95;;;;;;;8.85;100.00;100864.88;5236273;28;20041;-69
2022/11/28 00:44:12;;;;;;;5.78;4.10;;;;;;;8.91;100.00;100858.34;5237068;28;20037;-70
2022/11/28 00:46:43;;;;;;;6.97;4.10;;;;;;;8.90;100.00;100857.53;5236889;28;20474;-70
2022/11/28 00:49:14;;;;;;;5.00;3.80;;;;;;;8.93;100.00;100846.81;5237095;28;20048;-70
2022/11/28 00:51:45;;;;;;;4.85;4.10;;;;;;;8.92;100.00;100853.00;5236537;28;20083;-70
2022/11/28 00:54:17;;;;;;;5.65;3.70;;;;;;;8.89;100.00;100847.19;5236598;28;20033;-70
2022/11/28 00:56:48;;;;;;;5.55;3.90;;;;;;;8.91;100.00;100834.84;5236886;28;20057;-69
2022/11/28 00:59:19;;;;;;;5.38;4.15;;;;;;;8.97;100.00;100840.41;5237292;28;20292;-70
2022/11/28 01:01:51;;;;;;;5.75;4.53;;;;;;;8.97;100.00;100836.97;5236455;28;20028;-70
2022/11/28 01:04:22;;;;;;;5.90;4.25;;;;;;;8.96;100.00;100843.97;5236979;28;20079;-70
2022/11/28 01:06:55;;;;;;;6.40;4.35;;;;;;;8.99;100.00;100846.34;5236909;28;20033;-70
2022/11/28 01:09:26;;;;;;;6.50;4.23;;;;;;;8.95;100.00;100858.00;5236669;28;20486;-69
2022/11/28 01:11:57;;;;;;;6.80;4.43;;;;;;;8.96;100.00;100845.75;5236910;28;20104;-70
2022/11/28 01:14:29;;;;;;;4.43;3.60;;;;;;;8.95;100.00;100849.31;5237087;28;20021;-70
2022/11/28 01:17:00;;;;;;;6.30;3.92;;;;;;;8.93;100.00;100846.81;5236531;28;20418;-70
2022/11/28 01:19:31;;;;;;;6.60;4.38;;;;;;;8.93;100.00;100844.19;5235988;28;20040;-70
2022/11/28 01:22:05;;;;;;;6.40;4.07;;;;;;;8.92;100.00;100844.34;5236369;28;20064;-69
2022/11/28 01:24:36;;;;;;;;;;;;;;;9.41;100.00;100845.69;5238182;28;20060;-69
2022/11/28 01:27:07;;;;;;;6.87;4.00;;;;;;;8.97;100.00;100843.00;5235898;28;20362;-70
2022/11/28 01:29:38;;;;;;;6.20;3.63;;;;;;;8.93;100.00;100843.38;5235923;28;20354;-70
2022/11/28 01:32:10;;;;;;;5.40;3.47;;;;;;;8.96;100.00;100843.16;5236325;28;20056;-70
2022/11/28 01:34:41;;;;;;;5.15;3.97;;;;;;;8.91;100.00;100838.28;5236079;28;20069;-69
2022/11/28 01:37:12;;;;;;;4.97;3.45;;;;;;;8.90;100.00;100849.69;5235569;28;20032;-69
2022/11/28 01:39:44;;;;;;;6.43;3.65;;;;;;;8.95;100.00;100846.72;5237137;28;20111;-69
2022/11/28 01:42:19;;;;;;;5.63;3.97;;;;;;;9.02;100.00;100856.56;5235149;28;20049;-70
2022/11/28 01:44:53;;;;;;;4.25;3.67;;;;;;;8.95;100.00;100846.72;5236180;28;20021;-70
2022/11/28 01:47:29;;;;;;;6.78;3.63;;;;;;;8.94;100.00;100845.88;5234099;28;20707;-70
2022/11/28 01:50:02;;;;;;;4.97;3.85;;;;;;;8.84;100.00;100844.09;5235126;28;20036;-69
2022/11/28 01:52:37;;;;;;;6.70;3.63;;;;;;;8.84;100.00;100844.94;5236367;28;20029;-70
2022/11/28 01:55:11;;;;;;;5.57;3.53;;;;;;;8.85;100.00;100850.97;5235566;28;20052;-70
2022/11/28 01:57:43;;;;;;;5.95;3.30;;;;;;;8.82;100.00;100846.00;5235857;28;20459;-70
2022/11/28 02:00:18;;;;;;;4.88;3.75;;;;;;;8.86;100.00;100845.63;5236396;28;20038;-69
2022/11/28 02:03:14;;;;;;;5.40;3.83;;;;;;;8.99;100.00;100843.75;5235759;28;20028;-70
2022/11/28 02:05:47;;;;;;;5.65;3.60;;;;;;;8.82;100.00;100843.38;5235391;28;20405;-70
2022/11/28 02:08:18;;;;;;;;;;;;;;;9.32;100.00;100835.97;5236250;28;20029;-69
2022/11/28 02:10:52;;;;;;;6.20;3.83;;;;;;;8.84;100.00;100831.88;5235020;28;20007;-69
2022/11/28 02:13:29;;;;;;;5.88;3.67;;;;;;;8.89;100.00;100829.72;5236282;28;20056;-70
2022/11/28 02:16:29;;;;;;;6.43;4.40;;;;;;;8.95;100.00;100829.25;5235715;28;20036;-70
2022/11/28 02:19:13;;;;;;;5.35;3.60;;;;;;;8.93;100.00;100819.88;5235542;28;20019;-70
2022/11/28 02:21:56;;;;;;;5.53;3.75;;;;;;;8.82;100.00;100818.09;5235938;28;20078;-69
2022/11/28 02:24:49;;;;;;;5.18;3.70;;;;;;;8.92;100.00;100813.81;5250227;28;20091;-70
2022/11/28 02:27:59;;;;;;;5.07;3.90;;;;;;;8.89;100.00;100823.66;5235116;28;20033;-70
2022/11/28 02:30:52;;;;;;;5.05;3.90;;;;;;;8.98;100.00;100825.56;5243356;28;20271;-70
2022/11/28 02:33:32;;;;;;;5.97;3.17;;;;;;;8.88;100.00;100820.22;5233128;28;20026;-70
2022/11/28 02:36:17;;;;;;;4.68;3.50;;;;;;;8.82;100.00;100820.69;5235096;28;20037;-70
2022/11/28 02:39:21;;;;;;;5.10;3.50;;;;;;;8.85;100.00;100827.47;5236206;28;20414;-70
2022/11/28 02:42:00;;;;;;;6.03;4.05;;;;;;;8.72;100.00;100825.81;5235028;28;20045;-70
2022/11/28 02:44:58;;;;;;;5.38;3.63;;;;;;;8.88;100.00;100816.78;5234953;28;20462;-69
2022/11/28 02:47:32;;;;;;;5.07;3.83;;;;;;;8.69;100.00;100826.06;5214209;28;20073;-69
2022/11/28 02:50:16;;;;;;;5.20;3.47;;;;;;;8.66;100.00;100826.28;5234581;28;20026;-69
2022/11/28 02:53:05;;;;;;;5.47;4.00;;;;;;;8.78;100.00;100819.28;5235843;28;20043;-70
2022/11/28 02:55:41;;;;;;;5.63;3.75;;;;;;;8.68;100.00;100824.41;5234611;28;20086;-70
2022/11/28 02:58:13;;;;;;;5.18;3.60;;;;;;;8.60;100.00;100821.53;5234465;28;20091;-69
2022/11/28 03:00:45;;;;;;;6.18;3.58;;;;;;;8.62;100.00;100817.03;5236490;28;20642;-69
2022/11/28 03:03:48;;;;;;;4.50;3.40;;;;;;;8.85;100.00;100807.41;5238743;28;20382;-69
2022/11/28 03:07:02;;;;;;;4.78;3.47;;;;;;;8.84;100.00;100805.75;5238523;28;20029;-70
2022/11/28 03:09:45;;;;;;;6.45;3.70;;;;;;;8.79;100.00;100813.13;5228473;28;20132;-69
2022/11/28 03:12:20;;;;;;;4.22;3.30;;;;;;;8.72;100.00;100804.94;5238603;28;20064;-70
2022/11/28 03:15:03;;;;;;;5.30;3.53;;;;;;;8.70;100.00;100801.59;5238123;28;20474;-70
2022/11/28 03:17:49;;;;;;;4.50;3.30;;;;;;;8.73;100.00;100797.91;5232074;28;20740;-70
2022/11/28 03:20:45;;;;;;;5.35;3.15;;;;;;;8.75;100.00;100791.63;5238127;28;20047;-70
2022/11/28 03:23:32;;;;;;;5.00;3.15;;;;;;;8.71;100.00;100807.63;5238784;28;20036;-69
2022/11/28 03:26:29;;;;;;;3.83;3.22;;;;;;;8.65;100.00;100806.34;5238925;28;20033;-70
2022/11/28 03:29:10;;;;;;;5.15;3.25;;;;;;;8.67;100.00;100798.38;5238284;28;20580;-70
2022/11/28 03:31:48;;;;;;;3.72;3.10;;;;;;;8.59;100.00;100798.16;5238025;28;20033;-70
2022/11/28 03:34:23;;;;;;;5.72;3.10;;;;;;;8.56;100.00;100811.44;5238119;28;20029;-70
2022/11/28 03:37:03;;;;;;;6.93;3.63;;;;;;;8.64;100.00;100803.88;5238504;28;20021;-70
2022/11/28 03:39:39;;;;;;;3.80;3.15;;;;;;;8.56;100.00;100798.38;5238770;28;20553;-69
2022/11/28 03:42:16;;;;;;;5.45;3.42;;;;;;;8.62;100.00;100806.56;5237942;28;20069;-70
2022/11/28 03:45:05;;;;;;;4.43;2.97;;;;;;;8.69;100.00;100802.53;5238744;28;20025;-70
2022/11/28 03:47:43;;;;;;;4.55;2.85;;;;;;;8.62;100.00;100803.97;5238382;28;20139;-70
2022/11/28 03:50:19;;;;;;;4.45;3.30;;;;;;;8.60;100.00;100798.03;5237428;28;20116;-70
2022/11/28 03:53:00;;;;;;;5.35;3.72;;;;;;;8.62;100.00;100793.50;5236976;28;20059;-70
2022/11/28 03:55:42;;;;;;;3.60;2.92;;;;;;;8.68;100.00;100798.28;5238710;28;20494;-70
2022/11/28 03:58:29;;;;;;;5.70;3.00;;;;;;;8.68;100.00;100803.50;5237333;28;20079;-70
2022/11/28 04:01:17;;;;;;;4.72;3.17;;;;;;;8.69;100.00;100799.94;5238392;28;20490;-70
2022/11/28 04:04:10;;;;;;;4.22;3.13;;;;;;;8.62;100.00;100803.97;5238230;28;20033;-70
2022/11/28 04:07:06;;;;;;;7.10;3.35;;;;;;;8.76;100.00;100800.28;5238017;28;20041;-70
2022/11/28 04:09:53;;;;;;;4.13;3.05;;;;;;;8.71;100.00;100799.81;5237858;28;20029;-70
2022/11/28 04:12:38;;;;;;;4.78;3.33;;;;;;;8.66;100.00;100801.94;5237312;28;20083;-70
2022/11/28 04:15:39;;;;;;;5.07;3.22;;;;;;;8.81;100.00;100805.16;5238275;28;20486;-70
2022/11/28 04:18:19;;;;;;;7.38;3.08;;;;;;;8.60;100.00;100805.88;5237213;28;20049;-70
2022/11/28 04:21:23;;;;;;;4.00;3.20;;;;;;;8.77;100.00;100799.34;5237068;28;20037;-69
2022/11/28 04:23:59;;;;;;;5.38;3.83;;;;;;;8.59;100.00;100806.81;5220891;28;20117;-70
2022/11/28 04:26:38;;;;;;;5.63;3.55;;;;;;;8.64;100.00;100812.53;5237449;28;20025;-70
2022/11/28 04:29:14;;;;;;;6.75;3.88;;;;;;;8.59;100.00;100804.19;5237508;28;20410;-69
2022/11/28 04:31:48;;;;;;;6.20;3.63;;;;;;;8.60;100.00;100805.88;5237084;28;20017;-70
2022/11/28 04:34:22;;;;;;;5.75;3.22;;;;;;;8.59;100.00;100808.59;5237143;28;20033;-70
2022/11/28 04:36:57;;;;;;;5.43;3.65;;;;;;;8.60;100.00;100808.50;5237399;28;20032;-69
2022/11/28 04:39:32;;;;;;;4.40;3.60;;;;;;;8.64;100.00;100807.31;5236541;28;20033;-70
2022/11/28 04:42:13;;;;;;;4.50;3.25;;;;;;;8.71;100.00;100802.41;5260897;22;20045;-73
2022/11/28 04:44:53;;;;;;;4.88;3.40;;;;;;;8.59;100.00;100788.53;5241058;28;20072;-73
2022/11/28 04:47:25;;;;;;;4.47;3.58;;;;;;;8.62;100.00;100809.19;5248260;28;20029;-73
2022/11/28 04:49:57;;;;;;;4.85;3.90;;;;;;;8.61;100.00;100801.47;5243868;28;20029;-73
2022/11/28 04:52:43;;;;;;;3.92;3.17;;;;;;;8.70;100.00;100787.69;5248966;28;20029;-73
2022/11/28 04:55:34;;;;;;;4.93;3.80;;;;;;;8.66;100.00;100800.16;5245651;28;20482;-76
2022/11/28 04:58:18;;;;;;;4.30;3.22;;;;;;;8.75;100.00;100796.00;5244233;28;20032;-76
2022/11/28 05:00:51;;;;;;;;;;;;;;;9.11;100.00;100801.91;5241376;28;20028;-76
2022/11/28 05:03:27;;;;;;;4.75;4.10;;;;;;;8.72;100.00;100801.47;5265207;28;20021;-76
2022/11/28 05:05:59;;;;;;;4.55;3.58;;;;;;;8.63;100.00;100807.41;5246107;28;20052;-76
2022/11/28 05:08:30;;;;;;;5.22;3.90;;;;;;;8.62;100.00;100806.56;5242586;28;20524;-76
2022/11/28 05:11:02;;;;;;;4.88;4.32;;;;;;;8.62;100.00;100811.78;5244043;28;20064;-76
2022/11/28 05:13:33;;;;;;;6.03;4.18;;;;;;;8.62;100.00;100805.75;5242848;28;20028;-76
2022/11/28 05:16:05;;;;;;;4.47;4.07;;;;;;;8.65;100.00;100822.00;5243095;28;20516;-76
2022/11/28 05:18:36;;;;;;;4.68;4.13;;;;;;;8.61;100.00;100817.97;5243094;28;20082;-76
2022/11/28 05:21:07;;;;;;;6.78;4.38;;;;;;;8.60;100.00;100813.72;5245514;28;20029;-76
2022/11/28 05:23:41;;;;;;;5.35;4.28;;;;;;;8.64;100.00;100819.53;5246084;28;20029;-76
2022/11/28 05:26:16;;;;;;;5.97;4.50;;;;;;;8.64;100.00;100807.31;5248411;28;20032;-76
2022/11/28 05:28:49;;;;;;;5.75;4.85;;;;;;;8.63;100.00;100810.00;5245271;28;20024;-76
2022/11/28 05:31:21;;;;;;;4.90;4.40;;;;;;;8.62;100.00;100811.78;5237650;28;20041;-76
2022/11/28 05:33:53;;;;;;;4.75;4.25;;;;;;;8.62;100.00;100816.19;5243331;28;20017;-76
2022/11/28 05:36:25;;;;;;;5.03;4.13;;;;;;;8.67;100.00;100821.88;5242747;28;20166;-76
2022/11/28 05:38:56;;;;;;;5.45;4.30;;;;;;;8.64;100.00;100820.38;5248902;28;20096;-76
2022/11/28 05:41:30;;;;;;;5.75;4.78;;;;;;;8.66;100.00;100815.00;5245022;28;20041;-76
2022/11/28 05:44:01;;;;;;;4.80;4.32;;;;;;;8.69;100.00;100822.59;5244334;28;20508;-76
2022/11/28 05:46:32;;;;;;;5.07;4.53;;;;;;;8.67;100.00;100821.88;5247597;28;20039;-76
2022/11/28 05:49:03;;;;;;;4.85;4.35;;;;;;;8.67;100.00;100822.72;5243139;28;20032;-76
2022/11/28 05:51:35;;;;;;;5.57;4.53;;;;;;;8.72;100.00;100822.38;5239658;28;20498;-76
2022/11/28 05:54:06;;;;;;;4.90;4.30;;;;;;;8.72;100.00;100817.16;5241832;28;20037;-76
2022/11/28 05:56:37;;;;;;;5.00;4.50;;;;;;;8.74;100.00;100816.06;5243350;28;20467;-76
2022/11/28 05:59:08;;;;;;;4.80;4.40;;;;;;;8.72;100.00;100819.78;5243469;28;20024;-76
2022/11/28 06:01:40;;;;;;;5.07;4.57;;;;;;;8.72;100.00;100817.97;5247217;28;20376;-76
2022/11/28 06:04:11;;;;;;;5.95;4.63;;;;;;;8.71;100.00;100807.63;5246917;28;20060;-75
2022/11/28 06:06:42;;;;;;;5.30;4.72;;;;;;;8.73;100.00;100803.13;5240888;28;20021;-75
2022/11/28 06:09:14;;;;;;;5.72;4.85;;;;;;;8.66;100.00;100794.94;5241967;28;20043;-76
2022/11/28 06:11:45;;;;;;;5.75;4.57;;;;;;;8.74;100.00;100820.47;5241859;28;20029;-76
2022/11/28 06:14:16;;;;;;;5.53;4.78;;;;;;;8.79;100.00;100818.34;5245004;28;20024;-76
2022/11/28 06:16:48;;;;;;;5.65;4.70;;;;;;;8.75;100.00;100817.75;5249119;28;20028;-75
2022/11/28 06:19:19;;;;;;;5.05;4.60;;;;;;;8.68;100.00;100811.34;5237916;28;20091;-76
2022/11/28 06:21:50;;;;;;;6.45;5.03;;;;;;;8.75;100.00;100816.91;5246199;28;20057;-76
2022/11/28 06:24:21;;;;;;;5.28;4.78;;;;;;;8.79;100.00;100834.03;5248943;28;20082;-76
2022/11/28 06:26:54;;;;;;;5.70;5.18;;;;;;;8.77;100.00;100828.91;5245347;28;20060;-76
2022/11/28 06:29:25;;;;;;;5.47;4.97;;;;;;;8.80;100.00;100835.66;5245542;28;20037;-76
2022/11/28 06:31:56;;;;;;;5.85;5.03;;;;;;;8.78;100.00;100843.59;5242733;28;20592;-77
2022/11/28 06:34:28;;;;;;;6.70;5.80;;;;;;;8.77;100.00;100836.72;5245773;28;20394;-76
2022/11/28 06:36:59;;;;;;;6.20;5.60;;;;;;;8.84;100.00;100844.94;5244832;28;20025;-76
2022/11/28 06:39:31;;;;;;;5.40;4.90;;;;;;;8.76;100.00;100827.25;5242600;28;20056;-76
2022/11/28 06:42:02;;;;;;;6.22;5.63;;;;;;;8.77;100.00;100843.75;5260262;28;20048;-76
2022/11/28 06:44:34;;;;;;;5.47;4.97;;;;;;;8.77;100.00;100843.75;5254161;28;20382;-76
2022/11/28 06:47:05;;;;;;;6.38;5.78;;;;;;;8.77;100.00;100833.28;5266129;28;20025;-76
2022/11/28 06:49:39;;;;;;;5.47;4.93;;;;;;;8.82;100.00;100838.16;5264652;28;20564;-76
2022/11/28 06:52:10;;;;;;;6.55;5.93;;;;;;;8.78;100.00;100827.09;5265224;28;20107;-76
2022/11/28 06:54:41;;;;;;;6.40;5.80;;;;;;;8.80;100.00;100830.44;5237858;28;20115;-76
2022/11/28 06:57:12;;;;;;;6.53;5.20;;;;;;;8.84;100.00;100833.66;5260897;28;20032;-76
2022/11/28 06:59:44;;;;;;;6.20;5.60;;;;;;;8.80;100.00;100837.47;5244815;28;20112;-76
2022/11/28 07:02:15;;;;;;;6.30;5.70;;;;;;;8.82;100.00;100838.97;5259842;28;20033;-76
2022/11/28 07:04:46;;;;;;;6.43;5.82;;;;;;;8.82;100.00;100841.59;5261463;28;20029;-76
2022/11/28 07:07:17;;;;;;;5.88;5.25;;;;;;;8.83;100.00;100839.84;5258903;28;20082;-76
2022/11/28 07:09:50;;;;;;;6.63;6.03;;;;;;;8.84;100.00;100841.50;5261538;28;20108;-76
2022/11/28 07:12:21;;;;;;;6.28;5.60;;;;;;;8.82;100.00;100849.44;5226446;28;20301;-76
2022/11/28 07:14:53;;;;;;;6.45;5.80;;;;;;;8.83;100.00;100850.28;5263874;28;20047;-76
2022/11/28 07:17:24;;;;;;;6.95;5.43;;;;;;;8.81;100.00;100850.38;5244545;28;20013;-75
2022/11/28 07:19:55;;;;;;;6.70;6.10;;;;;;;8.80;100.00;100843.50;5263279;28;20543;-76
2022/11/28 07:22:27;;;;;;;7.03;6.32;;;;;;;8.83;100.00;100851.13;5265405;28;20043;-76
2022/11/28 07:24:58;;;;;;;6.05;5.53;;;;;;;8.81;100.00;100845.16;5262324;28;20046;-76
2022/11/28 07:27:29;;;;;;;6.35;5.75;;;;;;;8.86;100.00;100855.25;5264167;28;20034;-76
2022/11/28 07:30:00;;;;;;;6.50;5.78;;;;;;;8.90;100.00;100851.44;5249023;28;20025;-76
2022/11/28 07:32:32;;;;;;;7.00;6.30;;;;;;;8.89;100.00;100853.22;5254877;28;20423;-76
2022/11/28 07:35:05;;;;;;;6.43;5.82;;;;;;;8.94;100.00;100858.09;5261568;28;20393;-76
2022/11/28 07:37:36;;;;;;;6.80;6.20;;;;;;;8.93;100.00;100861.66;5264273;28;20087;-76
2022/11/28 07:40:08;;;;;;;6.07;5.47;;;;;;;8.95;100.00;100865.00;5255324;28;20693;-76
2022/11/28 07:42:40;;;;;;;6.78;6.18;;;;;;;8.95;100.00;100860.59;5243697;28;20028;-76
2022/11/28 07:45:11;;;;;;;6.65;6.05;;;;;;;8.98;100.00;100867.38;5259213;28;20056;-76
2022/11/28 07:47:42;;;;;;;6.18;5.57;;;;;;;9.00;100.00;100871.53;5242961;28;20021;-76
2022/11/28 07:50:14;;;;;;;7.47;6.47;;;;;;;9.01;100.00;100873.19;5265836;28;20528;-76
2022/11/28 07:52:45;;;;;;;7.57;6.28;;;;;;;9.01;100.00;100875.78;5247768;28;20473;-76
2022/11/28 07:55:16;;;;;;;6.43;5.82;;;;;;;9.00;100.00;100874.13;5250124;28;20047;-76
2022/11/28 07:57:48;;;;;;;6.88;6.18;;;;;;;9.03;100.00;100875.69;5241297;28;20472;-76
2022/11/28 08:00:20;;;;;;;8.52;6.15;;;;;;;8.95;100.00;100878.91;5261360;28;20029;-76
2022/11/28 08:02:51;;;;;;;6.72;6.03;;;;;;;8.93;100.00;100879.97;5261939;28;20082;-76
2022/11/28 08:05:23;;;;;;;7.97;6.32;;;;;;;8.95;100.00;100881.50;5244398;28;20021;-76
2022/11/28 08:07:54;;;;;;;7.32;6.65;;;;;;;8.99;100.00;100888.16;5242655;28;20020;-76
2022/11/28 08:10:25;;;;;;;7.05;6.38;;;;;;;8.97;100.00;100884.81;5264247;28;20029;-76
2022/11/28 08:12:56;;;;;;;7.57;6.32;;;;;;;8.89;100.00;100868.91;5268399;28;20048;-77
2022/11/28 08:15:30;;;;;;;7.50;6.80;;;;;;;9.02;100.00;100887.94;5263927;28;20027;-76
2022/11/28 08:18:02;;;;;;;6.93;6.25;;;;;;;9.00;100.00;100881.97;5261340;28;20025;-76
2022/11/28 08:20:33;;;;;;;7.75;6.95;;;;;;;8.94;100.00;100871.16;5261946;28;20051;-76
2022/11/28 08:23:04;;;;;;;7.43;6.72;;;;;;;9.04;100.00;100889.59;5265547;28;20036;-76
2022/11/28 08:25:36;;;;;;;8.13;7.32;;;;;;;9.09;100.00;100893.53;5253639;28;20017;-76
2022/11/28 08:28:07;;;;;;;7.47;6.78;;;;;;;9.12;100.00;100893.25;5265142;28;20128;-76
2022/11/28 08:30:38;;;;;;;8.80;7.35;;;;;;;9.08;100.00;100886.59;5263199;28;20032;-76
2022/11/28 08:33:10;;;;;;;8.43;6.93;;;;;;;9.12;100.00;100885.41;5247291;28;20120;-76
2022/11/28 08:35:41;;;;;;;8.25;7.45;;;;;;;9.10;100.00;100883.91;5266125;28;20025;-76
2022/11/28 08:38:12;;;;;;;9.38;7.93;;;;;;;9.15;100.00;100898.25;5263508;28;20102;-76
2022/11/28 08:40:44;;;;;;;9.00;8.10;;;;;;;9.16;100.00;100896.47;5262435;28;20156;-75
2022/11/28 08:43:15;;;;;;;9.55;7.97;;;;;;;9.13;100.00;100891.47;5263528;28;20087;-76
2022/11/28 08:45:47;;;;;;;9.02;8.13;;;;;;;9.17;100.00;100903.38;5265999;28;20033;-76
2022/11/28 08:48:18;;;;;;;9.30;8.30;;;;;;;9.18;100.00;100907.66;5261204;28;20492;-76
2022/11/28 08:50:50;;;;;;;8.88;7.97;;;;;;;9.21;100.00;100907.41;5265767;28;20060;-76
2022/11/28 08:53:21;;;;;;;9.85;8.15;;;;;;;9.19;100.00;100915.34;5262536;28;20033;-76
2022/11/28 08:55:53;;;;;;;10.90;7.57;;;;;;;9.23;100.00;100908.09;5266154;28;20052;-75
2022/11/28 08:58:24;;;;;;;9.18;7.70;;;;;;;9.25;100.00;100898.38;5264513;28;20023;-76
2022/11/28 09:00:56;;;;;;;9.85;8.15;;;;;;;9.24;100.00;100891.47;5249051;28;20025;-76
2022/11/28 09:03:27;;;;;;;9.25;8.07;;;;;;;9.25;100.00;100890.53;5261609;28;20028;-75
2022/11/28 09:06:02;;;;;;;9.07;8.00;;;;;;;9.32;100.00;100896.09;5246217;28;20163;-75
2022/11/28 09:08:34;;;;;;;8.30;7.50;;;;;;;9.35;100.00;100909.75;5258491;28;20059;-75
2022/11/28 09:11:07;;;;;;;8.77;7.85;;;;;;;9.38;100.00;100904.28;5260499;28;20108;-76
2022/11/28 09:13:38;;;;;;;10.07;8.32;;;;;;;9.38;100.00;100900.84;5263807;28;20680;-75
2022/11/28 09:16:10;;;;;;;9.52;7.68;;;;;;;9.35;100.00;100903.69;5264643;28;20048;-76
2022/11/28 09:18:42;;;;;;;8.75;7.60;;;;;;;9.37;100.00;100909.66;5235180;28;20060;-76
2022/11/28 09:21:14;;;;;;;9.20;7.78;;;;;;;9.37;100.00;100912.28;5246631;28;20108;-76
2022/11/28 09:23:46;;;;;;;8.10;7.20;;;;;;;9.41;100.00;100917.13;5263061;28;20040;-76
2022/11/28 09:26:19;;;;;;;9.02;7.53;;;;;;;9.40;100.00;100918.09;5245912;28;20024;-76
2022/11/28 09:28:51;;;;;;;7.72;6.93;;;;;;;9.44;100.00;100921.28;5260944;28;20905;-76
2022/11/28 09:31:23;;;;;;;8.98;7.45;;;;;;;9.47;100.00;100913.19;5245196;28;20373;-76
2022/11/28 09:33:54;;;;;;;7.70;6.75;;;;;;;9.49;100.00;100921.75;5262698;28;20820;-76
2022/11/28 09:36:27;;;;;;;8.38;6.70;;;;;;;9.47;100.00;100914.03;5258712;28;20057;-76
2022/11/28 09:38:59;;;;;;;8.73;7.18;;;;;;;9.54;100.00;100918.75;5245352;28;20387;-75
2022/11/28 09:41:39;;;;;;;8.30;7.50;;;;;;;9.63;100.00;100915.44;5261717;28;20044;-76
2022/11/28 09:44:21;;;;;;;10.60;7.70;;;;;;;9.61;100.00;100912.09;5243484;28;20102;-76
2022/11/28 09:46:57;;;;;;;8.82;7.93;;;;;;;9.61;100.00;100917.34;5259096;28;20028;-76
2022/11/28 09:49:43;;;;;;;9.93;8.05;;;;;;;9.74;100.00;100923.25;5256240;28;20029;-76
2022/11/28 09:52:27;;;;;;;9.95;8.50;;;;;;;9.72;100.00;100922.53;5262238;28;20508;-76
2022/11/28 09:55:08;;;;;;;8.43;7.47;;;;;;;9.71;100.00;100926.13;5242711;28;20541;-76
2022/11/28 09:57:47;;;;;;;8.82;7.82;;;;;;;9.72;100.00;100925.16;5239395;28;20078;-76
2022/11/28 10:00:22;;;;;;;9.27;8.27;;;;;;;9.71;100.00;100928.72;5259404;28;20024;-76
2022/11/28 10:02:59;;;;;;;9.73;8.32;;;;;;;9.69;100.00;100925.41;5243232;28;20136;-76
2022/11/28 10:05:36;;;;;;;10.07;9.07;;;;;;;9.83;100.00;100930.38;5264347;28;20082;-76
2022/11/28 10:08:34;;;;;;;10.10;9.10;;;;;;;9.87;100.00;100921.31;5237689;28;20474;-76
2022/11/28 10:11:24;;;;;;;10.82;8.80;;;;;;;9.89;100.00;100918.59;5266235;28;20051;-76
2022/11/28 10:14:18;;;;;;;10.57;9.48;;;;;;;9.88;100.00;100917.72;5259040;28;20089;-76
2022/11/28 10:17:00;;;;;;;10.73;9.63;;;;;;;9.88;100.00;100928.19;5258370;28;20552;-76
2022/11/28 10:19:40;;;;;;;10.52;9.52;;;;;;;9.97;100.00;100922.25;5242778;28;20079;-76
2022/11/28 10:22:21;;;;;;;11.50;10.40;;;;;;;10.02;100.00;100926.25;5260535;28;20029;-76
2022/11/28 10:24:56;;;;;;;10.60;9.50;;;;;;;9.91;100.00;100916.66;5262640;28;20028;-76
2022/11/28 10:27:34;;;;;;;10.02;9.02;;;;;;;10.02;100.00;100921.84;5259012;28;20020;-75
2022/11/28 10:30:16;;;;;;;11.82;10.63;;;;;;;10.06;100.00;100925.06;5261217;28;20512;-76
2022/11/28 10:32:57;;;;;;;11.80;10.68;;;;;;;10.06;100.00;100923.25;5259802;28;20163;-76
2022/11/28 10:35:50;;;;;;;11.60;10.30;;;;;;;10.08;100.00;100931.00;5260310;28;20028;-75
2022/11/28 10:38:26;;;;;;;11.85;10.65;;;;;;;10.11;100.00;100930.75;5259473;28;20036;-75
2022/11/28 10:41:19;;;;;;;11.75;10.55;;;;;;;10.20;100.00;100932.63;5439776;22;20054;-74
2022/11/28 10:43:59;;;;;;;13.05;11.18;;;;;;;10.23;100.00;100935.00;5293548;28;20119;-74
2022/11/28 10:46:36;;;;;;;12.43;11.13;;;;;;;10.23;100.00;100937.63;5296335;28;20020;-75
2022/11/28 10:49:19;;;;;;;12.80;11.50;;;;;;;10.10;100.00;100939.56;5294677;28;20032;-74
2022/11/28 10:52:27;;;;;;;13.80;12.40;;;;;;;10.31;100.00;100940.47;5290081;28;20016;-74
2022/11/28 10:55:40;;;;;;;14.00;12.60;;;;;;;10.36;100.00;100942.69;5283457;28;20432;-74
2022/11/28 10:58:21;;;;;;;14.15;12.75;;;;;;;10.18;100.00;100935.34;5284790;28;20481;-74
2022/11/28 11:00:55;;;;;;;15.00;12.45;;;;;;;10.17;100.00;100943.34;5279669;28;20039;-75
2022/11/28 11:03:30;;;;;;;15.85;14.15;;;;;;;10.19;100.00;100949.25;5284610;28;20034;-75
2022/11/28 11:06:02;;;;;;;15.10;13.60;;;;;;;10.13;100.00;100947.16;5288637;28;20032;-74
2022/11/28 11:08:38;;;;;;;16.15;14.32;;;;;;;10.17;100.00;100938.09;5282657;28;20035;-74
2022/11/28 11:11:27;;;;;;;15.63;14.02;;;;;;;10.34;100.00;100942.84;5279824;28;20032;-75
2022/11/28 11:14:05;;;;;;;16.70;14.93;;;;;;;10.13;100.00;100934.06;5283104;28;20028;-75
2022/11/28 11:16:58;;;;;;;18.50;16.55;;;;;;;10.34;100.00;100932.34;5279236;28;20033;-74
2022/11/28 11:19:35;;;;;;;17.30;15.15;;;;;;;10.19;100.00;100942.28;5277722;28;20091;-74
2022/11/28 11:22:18;;;;;;;18.05;15.95;;;;;;;10.30;100.00;100937.94;5288688;28;20066;-75
2022/11/28 11:25:19;;;;;;;17.83;15.95;;;;;;;10.41;100.00;100941.34;5287887;28;20400;-75
2022/11/28 11:27:51;;;;;;;18.23;15.85;;;;;;;10.26;100.00;100936.53;5290806;28;20031;-74
2022/11/28 11:30:30;;;;;;;17.70;15.23;;;;;;;10.36;100.00;100932.22;5284193;28;20043;-75
2022/11/28 11:33:04;;;;;;;18.55;15.25;;;;;;;10.32;100.00;100931.66;5286692;28;20028;-76
2022/11/28 11:35:43;;;;;;;18.85;16.63;;;;;;;10.40;100.00;100934.47;5283184;28;20030;-74
2022/11/28 11:38:26;;;;;;;19.23;16.42;;;;;;;10.39;100.00;100935.41;5296196;28;20028;-73
2022/11/28 11:41:16;;;;;;;;;;;;;;;10.88;100.00;100931.31;5287089;28;20071;-73
2022/11/28 11:43:48;;;;;;;20.95;17.40;;;;;;;10.42;100.00;100931.72;5288174;28;20311;-74
2022/11/28 11:46:19;;;;;;;21.80;18.00;;;;;;;10.41;100.00;100922.19;5290383;28;20035;-73
2022/11/28 11:48:52;;;;;;;26.73;18.02;;;;;;;10.40;100.00;100918.75;5284377;28;20020;-73
2022/11/28 11:51:26;;;;;;;26.35;18.65;;;;;;;10.42;100.00;100919.47;5290454;28;20035;-73
2022/11/28 11:54:12;;;;;;;24.08;19.35;;;;;;;10.58;100.00;100931.28;5291142;28;20032;-74
2022/11/28 11:56:46;;;;;;;23.20;19.45;;;;;;;10.44;100.00;100930.63;5290457;28;20097;-73
2022/11/28 11:59:28;;;;;;;23.80;18.83;;;;;;;10.52;100.00;100937.84;5291088;28;20025;-74
2022/11/28 12:02:04;;;;;;;27.10;19.27;;;;;;;10.47;100.00;100940.84;5286691;28;20039;-74
2022/11/28 12:04:43;;;;;;;24.52;19.77;;;;;;;10.48;100.00;100936.44;5285322;28;20024;-73